sensor_id;sensor_type;location;lat;lon;timestamp;P1;durP1;ratioP1;P2;durP2;ratioP2
35602;SDS011;21725;50.836;4.368;2022-12-05T00:00:24;74.88;;;34.40;;
35602;SDS011;21725;50.836;4.368;2022-12-05T00:02:52;67.28;;;32.63;;
35602;SDS011;21725;50.836;4.368;2022-12-05T00:05:21;66.95;;;34.05;;
35602;SDS011;21725;50.836;4.368;2022-12-05T00:07:49;66.07;;;33.67;;
35602;SDS011;21725;50.836;4.368;2022-12-05T00:10:15;61.95;;;32.78;;
35602;SDS011;21725;50.836;4.368;2022-12-05T00:12:42;58.10;;;31.70;;
35602;SDS011;21725;50.836;4.368;2022-12-05T00:15:10;58.08;;;32.03;;
35602;SDS011;21725;50.836;4.368;2022-12-05T00:17:37;54.50;;;31.50;;
35602;SDS011;21725;50.836;4.368;2022-12-05T00:20:06;56.72;;;29.20;;
35602;SDS011;21725;50.836;4.368;2022-12-05T00:22:43;60.83;;;30.00;;
35602;SDS011;21725;50.836;4.368;2022-12-05T00:25:09;58.45;;;28.85;;
35602;SDS011;21725;50.836;4.368;2022-12-05T00:27:34;59.25;;;29.92;;
35602;SDS011;21725;50.836;4.368;2022-12-05T00:32:30;60.83;;;29.60;;
35602;SDS011;21725;50.836;4.368;2022-12-05T00:34:59;58.42;;;29.58;;
35602;SDS011;21725;50.836;4.368;2022-12-05T00:37:25;55.45;;;27.50;;
35602;SDS011;21725;50.836;4.368;2022-12-05T00:39:51;63.47;;;30.08;;
35602;SDS011;21725;50.836;4.368;2022-12-05T00:42:17;52.20;;;28.67;;
35602;SDS011;21725;50.836;4.368;2022-12-05T00:44:47;49.57;;;26.80;;
35602;SDS011;21725;50.836;4.368;2022-12-05T00:47:14;58.90;;;28.13;;
35602;SDS011;21725;50.836;4.368;2022-12-05T00:49:40;54.67;;;27.38;;
35602;SDS011;21725;50.836;4.368;2022-12-05T00:52:06;51.90;;;26.38;;
35602;SDS011;21725;50.836;4.368;2022-12-05T00:54:41;48.03;;;27.25;;
35602;SDS011;21725;50.836;4.368;2022-12-05T00:57:18;57.33;;;27.77;;
35602;SDS011;21725;50.836;4.368;2022-12-05T00:59:44;49.78;;;25.30;;
35602;SDS011;21725;50.836;4.368;2022-12-05T01:02:10;39.55;;;22.73;;
35602;SDS011;21725;50.836;4.368;2022-12-05T01:04:38;52.63;;;25.13;;
35602;SDS011;21725;50.836;4.368;2022-12-05T01:07:04;47.42;;;25.20;;
35602;SDS011;21725;50.836;4.368;2022-12-05T01:09:33;50.53;;;24.27;;
35602;SDS011;21725;50.836;4.368;2022-12-05T01:12:02;47.60;;;24.67;;
35602;SDS011;21725;50.836;4.368;2022-12-05T01:14:31;52.90;;;24.83;;
35602;SDS011;21725;50.836;4.368;2022-12-05T01:16:59;49.65;;;24.38;;
35602;SDS011;21725;50.836;4.368;2022-12-05T01:19:26;43.88;;;24.00;;
35602;SDS011;21725;50.836;4.368;2022-12-05T01:21:54;47.13;;;25.17;;
35602;SDS011;21725;50.836;4.368;2022-12-05T01:24:21;41.13;;;23.67;;
35602;SDS011;21725;50.836;4.368;2022-12-05T01:26:48;42.67;;;24.73;;
35602;SDS011;21725;50.836;4.368;2022-12-05T01:29:15;49.63;;;26.27;;
35602;SDS011;21725;50.836;4.368;2022-12-05T01:31:45;43.85;;;23.13;;
35602;SDS011;21725;50.836;4.368;2022-12-05T01:34:15;42.45;;;24.10;;
35602;SDS011;21725;50.836;4.368;2022-12-05T01:36:44;45.17;;;24.08;;
35602;SDS011;21725;50.836;4.368;2022-12-05T01:39:20;47.88;;;24.38;;
35602;SDS011;21725;50.836;4.368;2022-12-05T01:41:47;41.95;;;23.88;;
35602;SDS011;21725;50.836;4.368;2022-12-05T01:46:43;46.88;;;26.40;;
35602;SDS011;21725;50.836;4.368;2022-12-05T01:49:12;48.47;;;26.80;;
35602;SDS011;21725;50.836;4.368;2022-12-05T01:51:54;46.05;;;24.15;;
35602;SDS011;21725;50.836;4.368;2022-12-05T01:54:27;60.05;;;28.30;;
35602;SDS011;21725;50.836;4.368;2022-12-05T01:56:58;36.22;;;20.25;;
35602;SDS011;21725;50.836;4.368;2022-12-05T02:02:28;52.90;;;27.48;;
35602;SDS011;21725;50.836;4.368;2022-12-05T02:05:06;51.30;;;27.92;;
35602;SDS011;21725;50.836;4.368;2022-12-05T02:07:43;55.65;;;27.70;;
35602;SDS011;21725;50.836;4.368;2022-12-05T02:10:10;59.65;;;30.35;;
35602;SDS011;21725;50.836;4.368;2022-12-05T02:12:37;61.67;;;29.20;;
35602;SDS011;21725;50.836;4.368;2022-12-05T02:38:23;65.05;;;32.50;;
35602;SDS011;21725;50.836;4.368;2022-12-05T02:41:44;60.50;;;28.80;;
35602;SDS011;21725;50.836;4.368;2022-12-05T02:44:36;66.88;;;30.52;;
35602;SDS011;21725;50.836;4.368;2022-12-05T02:47:10;66.03;;;31.27;;
35602;SDS011;21725;50.836;4.368;2022-12-05T02:49:41;68.20;;;31.05;;
35602;SDS011;21725;50.836;4.368;2022-12-05T02:52:11;63.13;;;30.95;;
35602;SDS011;21725;50.836;4.368;2022-12-05T02:54:40;64.28;;;28.48;;
35602;SDS011;21725;50.836;4.368;2022-12-05T02:57:09;63.25;;;30.17;;
35602;SDS011;21725;50.836;4.368;2022-12-05T02:59:37;74.95;;;33.58;;
35602;SDS011;21725;50.836;4.368;2022-12-05T03:02:03;60.17;;;31.02;;
35602;SDS011;21725;50.836;4.368;2022-12-05T03:04:31;63.38;;;31.00;;
35602;SDS011;21725;50.836;4.368;2022-12-05T03:07:06;62.00;;;31.38;;
35602;SDS011;21725;50.836;4.368;2022-12-05T03:09:37;60.10;;;29.15;;
35602;SDS011;21725;50.836;4.368;2022-12-05T03:12:34;63.97;;;32.58;;
35602;SDS011;21725;50.836;4.368;2022-12-05T03:15:13;74.72;;;32.10;;
35602;SDS011;21725;50.836;4.368;2022-12-05T03:17:52;60.42;;;29.63;;
35602;SDS011;21725;50.836;4.368;2022-12-05T03:20:27;65.22;;;31.13;;
35602;SDS011;21725;50.836;4.368;2022-12-05T03:22:59;57.33;;;28.88;;
35602;SDS011;21725;50.836;4.368;2022-12-05T03:37:12;59.95;;;30.13;;
35602;SDS011;21725;50.836;4.368;2022-12-05T03:40:02;62.75;;;29.98;;
35602;SDS011;21725;50.836;4.368;2022-12-05T03:42:53;57.35;;;28.20;;
35602;SDS011;21725;50.836;4.368;2022-12-05T03:46:15;55.95;;;29.50;;
35602;SDS011;21725;50.836;4.368;2022-12-05T03:51:21;50.40;;;26.70;;
35602;SDS011;21725;50.836;4.368;2022-12-05T03:57:05;47.22;;;26.02;;
35602;SDS011;21725;50.836;4.368;2022-12-05T03:59:59;45.10;;;24.80;;
35602;SDS011;21725;50.836;4.368;2022-12-05T04:02:30;45.95;;;25.75;;
35602;SDS011;21725;50.836;4.368;2022-12-05T04:05:22;42.22;;;22.40;;
35602;SDS011;21725;50.836;4.368;2022-12-05T04:08:03;49.00;;;25.00;;
35602;SDS011;21725;50.836;4.368;2022-12-05T04:10:34;52.72;;;26.33;;
35602;SDS011;21725;50.836;4.368;2022-12-05T04:13:13;43.72;;;23.33;;
35602;SDS011;21725;50.836;4.368;2022-12-05T04:15:54;45.60;;;23.08;;
35602;SDS011;21725;50.836;4.368;2022-12-05T04:18:43;45.15;;;26.35;;
35602;SDS011;21725;50.836;4.368;2022-12-05T04:21:17;47.92;;;26.25;;
35602;SDS011;21725;50.836;4.368;2022-12-05T04:24:15;49.28;;;25.48;;
35602;SDS011;21725;50.836;4.368;2022-12-05T04:27:16;51.50;;;25.80;;
35602;SDS011;21725;50.836;4.368;2022-12-05T04:30:09;46.20;;;24.23;;
35602;SDS011;21725;50.836;4.368;2022-12-05T04:32:53;47.75;;;23.67;;
35602;SDS011;21725;50.836;4.368;2022-12-05T04:35:33;44.90;;;24.58;;
35602;SDS011;21725;50.836;4.368;2022-12-05T04:38:07;40.05;;;22.80;;
35602;SDS011;21725;50.836;4.368;2022-12-05T04:43:32;39.50;;;20.25;;
35602;SDS011;21725;50.836;4.368;2022-12-05T04:46:12;38.65;;;22.63;;
35602;SDS011;21725;50.836;4.368;2022-12-05T04:48:41;41.58;;;23.63;;
35602;SDS011;21725;50.836;4.368;2022-12-05T04:51:14;35.72;;;21.08;;
35602;SDS011;21725;50.836;4.368;2022-12-05T04:53:44;41.63;;;24.33;;
35602;SDS011;21725;50.836;4.368;2022-12-05T04:58:49;40.50;;;23.73;;
35602;SDS011;21725;50.836;4.368;2022-12-05T05:25:39;43.20;;;23.40;;
35602;SDS011;21725;50.836;4.368;2022-12-05T05:28:09;43.38;;;24.98;;
35602;SDS011;21725;50.836;4.368;2022-12-05T05:30:35;48.35;;;24.63;;
35602;SDS011;21725;50.836;4.368;2022-12-05T05:33:01;48.95;;;27.60;;
35602;SDS011;21725;50.836;4.368;2022-12-05T05:35:27;43.97;;;23.10;;
35602;SDS011;21725;50.836;4.368;2022-12-05T05:38:09;49.38;;;25.13;;
35602;SDS011;21725;50.836;4.368;2022-12-05T05:40:38;49.70;;;25.98;;
35602;SDS011;21725;50.836;4.368;2022-12-05T05:43:07;40.97;;;23.60;;
35602;SDS011;21725;50.836;4.368;2022-12-05T05:45:33;55.55;;;27.65;;
35602;SDS011;21725;50.836;4.368;2022-12-05T05:48:14;50.55;;;26.70;;
35602;SDS011;21725;50.836;4.368;2022-12-05T05:50:42;49.83;;;27.25;;
35602;SDS011;21725;50.836;4.368;2022-12-05T05:53:09;49.88;;;28.42;;
35602;SDS011;21725;50.836;4.368;2022-12-05T05:55:37;50.78;;;25.98;;
35602;SDS011;21725;50.836;4.368;2022-12-05T05:58:04;42.88;;;27.70;;
35602;SDS011;21725;50.836;4.368;2022-12-05T06:00:30;45.28;;;24.83;;
35602;SDS011;21725;50.836;4.368;2022-12-05T06:02:57;55.22;;;27.05;;
35602;SDS011;21725;50.836;4.368;2022-12-05T06:05:22;52.63;;;26.60;;
35602;SDS011;21725;50.836;4.368;2022-12-05T06:07:55;47.85;;;26.83;;
35602;SDS011;21725;50.836;4.368;2022-12-05T06:10:21;54.78;;;27.48;;
35602;SDS011;21725;50.836;4.368;2022-12-05T06:12:47;59.03;;;29.50;;
35602;SDS011;21725;50.836;4.368;2022-12-05T06:15:14;50.90;;;27.70;;
35602;SDS011;21725;50.836;4.368;2022-12-05T06:17:40;51.70;;;25.45;;
35602;SDS011;21725;50.836;4.368;2022-12-05T06:20:06;49.88;;;27.52;;
35602;SDS011;21725;50.836;4.368;2022-12-05T06:22:33;55.63;;;28.20;;
35602;SDS011;21725;50.836;4.368;2022-12-05T06:25:01;53.40;;;28.25;;
35602;SDS011;21725;50.836;4.368;2022-12-05T06:27:28;48.80;;;25.75;;
35602;SDS011;21725;50.836;4.368;2022-12-05T06:29:56;43.75;;;24.98;;
35602;SDS011;21725;50.836;4.368;2022-12-05T06:32:22;55.63;;;24.33;;
35602;SDS011;21725;50.836;4.368;2022-12-05T06:34:51;39.15;;;22.85;;
35602;SDS011;21725;50.836;4.368;2022-12-05T06:37:20;52.88;;;27.05;;
35602;SDS011;21725;50.836;4.368;2022-12-05T06:39:50;42.60;;;25.25;;
35602;SDS011;21725;50.836;4.368;2022-12-05T06:42:17;48.17;;;26.95;;
35602;SDS011;21725;50.836;4.368;2022-12-05T06:44:46;36.63;;;21.33;;
35602;SDS011;21725;50.836;4.368;2022-12-05T06:47:12;47.63;;;26.13;;
35602;SDS011;21725;50.836;4.368;2022-12-05T06:49:48;51.08;;;29.02;;
35602;SDS011;21725;50.836;4.368;2022-12-05T06:52:17;47.83;;;26.45;;
35602;SDS011;21725;50.836;4.368;2022-12-05T06:54:43;42.60;;;25.92;;
35602;SDS011;21725;50.836;4.368;2022-12-05T06:57:13;46.13;;;24.45;;
35602;SDS011;21725;50.836;4.368;2022-12-05T06:59:43;46.92;;;23.65;;
35602;SDS011;21725;50.836;4.368;2022-12-05T07:02:37;54.13;;;27.55;;
35602;SDS011;21725;50.836;4.368;2022-12-05T07:05:09;37.60;;;22.63;;
35602;SDS011;21725;50.836;4.368;2022-12-05T07:07:38;41.70;;;23.10;;
35602;SDS011;21725;50.836;4.368;2022-12-05T07:10:04;48.55;;;24.85;;
35602;SDS011;21725;50.836;4.368;2022-12-05T07:12:33;45.10;;;26.45;;
35602;SDS011;21725;50.836;4.368;2022-12-05T07:14:59;50.45;;;25.17;;
35602;SDS011;21725;50.836;4.368;2022-12-05T07:17:33;49.53;;;26.27;;
35602;SDS011;21725;50.836;4.368;2022-12-05T07:20:07;42.10;;;24.27;;
35602;SDS011;21725;50.836;4.368;2022-12-05T07:22:35;40.13;;;23.23;;
35602;SDS011;21725;50.836;4.368;2022-12-05T07:25:03;44.35;;;24.33;;
35602;SDS011;21725;50.836;4.368;2022-12-05T07:27:32;44.72;;;24.63;;
35602;SDS011;21725;50.836;4.368;2022-12-05T07:29:58;39.38;;;22.40;;
35602;SDS011;21725;50.836;4.368;2022-12-05T07:32:29;44.97;;;24.17;;
35602;SDS011;21725;50.836;4.368;2022-12-05T07:34:58;43.05;;;23.10;;
35602;SDS011;21725;50.836;4.368;2022-12-05T07:37:24;41.35;;;22.98;;
35602;SDS011;21725;50.836;4.368;2022-12-05T07:39:51;41.40;;;25.73;;
35602;SDS011;21725;50.836;4.368;2022-12-05T07:42:17;37.33;;;22.35;;
35602;SDS011;21725;50.836;4.368;2022-12-05T07:44:52;41.13;;;23.25;;
35602;SDS011;21725;50.836;4.368;2022-12-05T07:47:18;44.20;;;23.52;;
35602;SDS011;21725;50.836;4.368;2022-12-05T07:49:47;40.38;;;23.52;;
35602;SDS011;21725;50.836;4.368;2022-12-05T07:54:40;48.15;;;24.75;;
35602;SDS011;21725;50.836;4.368;2022-12-05T07:57:08;50.50;;;25.55;;
35602;SDS011;21725;50.836;4.368;2022-12-05T07:59:37;40.45;;;24.08;;
35602;SDS011;21725;50.836;4.368;2022-12-05T08:02:05;46.60;;;25.63;;
35602;SDS011;21725;50.836;4.368;2022-12-05T08:04:32;48.13;;;25.63;;
35602;SDS011;21725;50.836;4.368;2022-12-05T08:06:58;51.65;;;26.58;;
35602;SDS011;21725;50.836;4.368;2022-12-05T08:09:28;39.35;;;20.10;;
35602;SDS011;21725;50.836;4.368;2022-12-05T08:11:57;39.47;;;23.15;;
35602;SDS011;21725;50.836;4.368;2022-12-05T08:16:55;47.35;;;25.83;;
35602;SDS011;21725;50.836;4.368;2022-12-05T08:19:25;46.47;;;22.85;;
35602;SDS011;21725;50.836;4.368;2022-12-05T08:21:53;42.45;;;22.75;;
35602;SDS011;21725;50.836;4.368;2022-12-05T08:24:19;42.08;;;22.52;;
35602;SDS011;21725;50.836;4.368;2022-12-05T08:26:45;37.13;;;21.23;;
35602;SDS011;21725;50.836;4.368;2022-12-05T08:29:13;44.00;;;24.98;;
35602;SDS011;21725;50.836;4.368;2022-12-05T08:31:40;36.90;;;20.95;;
35602;SDS011;21725;50.836;4.368;2022-12-05T08:34:10;39.78;;;24.08;;
35602;SDS011;21725;50.836;4.368;2022-12-05T08:36:40;34.33;;;21.83;;
35602;SDS011;21725;50.836;4.368;2022-12-05T08:39:06;38.20;;;21.42;;
35602;SDS011;21725;50.836;4.368;2022-12-05T08:41:45;37.08;;;22.05;;
35602;SDS011;21725;50.836;4.368;2022-12-05T08:44:14;40.20;;;20.50;;
35602;SDS011;21725;50.836;4.368;2022-12-05T08:46:41;37.00;;;21.08;;
35602;SDS011;21725;50.836;4.368;2022-12-05T08:49:09;39.63;;;21.67;;
35602;SDS011;21725;50.836;4.368;2022-12-05T08:51:38;40.20;;;22.85;;
35602;SDS011;21725;50.836;4.368;2022-12-05T08:54:07;37.60;;;20.52;;
35602;SDS011;21725;50.836;4.368;2022-12-05T08:56:33;36.00;;;21.08;;
35602;SDS011;21725;50.836;4.368;2022-12-05T08:59:00;30.63;;;17.23;;
35602;SDS011;21725;50.836;4.368;2022-12-05T09:01:27;33.67;;;19.33;;
35602;SDS011;21725;50.836;4.368;2022-12-05T09:03:56;28.45;;;16.88;;
35602;SDS011;21725;50.836;4.368;2022-12-05T09:06:24;28.75;;;18.17;;
35602;SDS011;21725;50.836;4.368;2022-12-05T09:08:55;30.88;;;18.35;;
35602;SDS011;21725;50.836;4.368;2022-12-05T09:11:27;29.52;;;19.10;;
35602;SDS011;21725;50.836;4.368;2022-12-05T09:13:58;34.63;;;19.02;;
35602;SDS011;21725;50.836;4.368;2022-12-05T09:16:33;29.25;;;18.20;;
35602;SDS011;21725;50.836;4.368;2022-12-05T09:19:03;31.50;;;19.17;;
35602;SDS011;21725;50.836;4.368;2022-12-05T09:21:31;29.52;;;18.23;;
35602;SDS011;21725;50.836;4.368;2022-12-05T09:23:58;27.55;;;17.48;;
35602;SDS011;21725;50.836;4.368;2022-12-05T09:26:28;26.40;;;16.40;;
35602;SDS011;21725;50.836;4.368;2022-12-05T09:28:57;26.27;;;16.33;;
35602;SDS011;21725;50.836;4.368;2022-12-05T09:31:26;26.08;;;16.77;;
35602;SDS011;21725;50.836;4.368;2022-12-05T09:33:54;21.58;;;15.27;;
35602;SDS011;21725;50.836;4.368;2022-12-05T09:36:22;22.88;;;15.48;;
35602;SDS011;21725;50.836;4.368;2022-12-05T09:38:50;23.95;;;14.32;;
35602;SDS011;21725;50.836;4.368;2022-12-05T09:44:30;22.70;;;16.05;;
35602;SDS011;21725;50.836;4.368;2022-12-05T09:50:21;21.27;;;13.95;;
35602;SDS011;21725;50.836;4.368;2022-12-05T09:58:50;19.80;;;12.77;;
35602;SDS011;21725;50.836;4.368;2022-12-05T10:04:12;15.90;;;10.73;;
35602;SDS011;21725;50.836;4.368;2022-12-05T10:06:49;18.52;;;12.05;;
35602;SDS011;21725;50.836;4.368;2022-12-05T10:15:43;18.27;;;12.52;;
35602;SDS011;21725;50.836;4.368;2022-12-05T10:21:24;21.35;;;12.18;;
35602;SDS011;21725;50.836;4.368;2022-12-05T10:23:59;17.10;;;11.38;;
35602;SDS011;21725;50.836;4.368;2022-12-05T10:26:50;17.10;;;13.00;;
35602;SDS011;21725;50.836;4.368;2022-12-05T10:29:22;17.17;;;11.82;;
35602;SDS011;21725;50.836;4.368;2022-12-05T10:35:22;17.25;;;12.48;;
35602;SDS011;21725;50.836;4.368;2022-12-05T10:38:01;18.73;;;12.05;;
35602;SDS011;21725;50.836;4.368;2022-12-05T10:40:42;21.13;;;14.40;;
35602;SDS011;21725;50.836;4.368;2022-12-05T10:43:13;20.33;;;14.07;;
35602;SDS011;21725;50.836;4.368;2022-12-05T10:45:45;21.08;;;14.00;;
35602;SDS011;21725;50.836;4.368;2022-12-05T10:48:13;17.27;;;12.77;;
35602;SDS011;21725;50.836;4.368;2022-12-05T10:50:42;18.27;;;13.32;;
35602;SDS011;21725;50.836;4.368;2022-12-05T10:53:14;21.88;;;13.77;;
35602;SDS011;21725;50.836;4.368;2022-12-05T10:55:44;21.13;;;12.80;;
35602;SDS011;21725;50.836;4.368;2022-12-05T10:58:18;16.23;;;11.15;;
35602;SDS011;21725;50.836;4.368;2022-12-05T11:00:52;15.85;;;12.00;;
35602;SDS011;21725;50.836;4.368;2022-12-05T11:29:40;16.42;;;11.38;;
35602;SDS011;21725;50.836;4.368;2022-12-05T11:32:21;16.65;;;12.52;;
35602;SDS011;21725;50.836;4.368;2022-12-05T11:34:51;17.33;;;12.15;;
35602;SDS011;21725;50.836;4.368;2022-12-05T11:40:24;16.77;;;12.65;;
35602;SDS011;21725;50.836;4.368;2022-12-05T11:43:15;21.45;;;12.02;;
35602;SDS011;21725;50.836;4.368;2022-12-05T11:46:12;16.05;;;10.80;;
35602;SDS011;21725;50.836;4.368;2022-12-05T11:54:41;15.43;;;10.65;;
35602;SDS011;21725;50.836;4.368;2022-12-05T11:57:36;12.50;;;9.30;;
35602;SDS011;21725;50.836;4.368;2022-12-05T12:02:57;10.00;;;7.47;;
35602;SDS011;21725;50.836;4.368;2022-12-05T12:05:54;13.40;;;9.90;;
35602;SDS011;21725;50.836;4.368;2022-12-05T12:08:47;14.80;;;10.98;;
35602;SDS011;21725;50.836;4.368;2022-12-05T12:16:57;46.72;;;31.00;;
35602;SDS011;21725;50.836;4.368;2022-12-05T12:22:45;19.35;;;11.45;;
35602;SDS011;21725;50.836;4.368;2022-12-05T12:31:45;16.45;;;11.93;;
35602;SDS011;21725;50.836;4.368;2022-12-05T12:42:48;14.05;;;10.52;;
35602;SDS011;21725;50.836;4.368;2022-12-05T12:45:34;16.13;;;12.25;;
35602;SDS011;21725;50.836;4.368;2022-12-05T12:48:16;17.48;;;11.60;;
35602;SDS011;21725;50.836;4.368;2022-12-05T12:51:00;17.90;;;12.40;;
35602;SDS011;21725;50.836;4.368;2022-12-05T12:53:36;19.35;;;13.02;;
35602;SDS011;21725;50.836;4.368;2022-12-05T13:01:51;19.67;;;12.75;;
35602;SDS011;21725;50.836;4.368;2022-12-05T13:07:22;19.30;;;12.65;;
35602;SDS011;21725;50.836;4.368;2022-12-05T13:10:22;14.80;;;10.88;;
35602;SDS011;21725;50.836;4.368;2022-12-05T13:12:46;21.63;;;13.82;;
35602;SDS011;21725;50.836;4.368;2022-12-05T13:15:14;18.45;;;13.07;;
35602;SDS011;21725;50.836;4.368;2022-12-05T13:17:46;21.95;;;13.93;;
35602;SDS011;21725;50.836;4.368;2022-12-05T13:20:17;20.85;;;14.68;;
35602;SDS011;21725;50.836;4.368;2022-12-05T13:22:48;18.05;;;12.93;;
35602;SDS011;21725;50.836;4.368;2022-12-05T13:25:16;16.33;;;11.77;;
35602;SDS011;21725;50.836;4.368;2022-12-05T13:27:54;13.45;;;10.10;;
35602;SDS011;21725;50.836;4.368;2022-12-05T13:30:25;14.73;;;11.32;;
35602;SDS011;21725;50.836;4.368;2022-12-05T13:33:18;16.05;;;11.45;;
35602;SDS011;21725;50.836;4.368;2022-12-05T13:35:53;29.45;;;20.95;;
35602;SDS011;21725;50.836;4.368;2022-12-05T13:38:39;21.42;;;12.32;;
35602;SDS011;21725;50.836;4.368;2022-12-05T13:41:58;14.23;;;11.25;;
35602;SDS011;21725;50.836;4.368;2022-12-05T13:44:40;15.23;;;10.77;;
35602;SDS011;21725;50.836;4.368;2022-12-05T13:50:07;15.55;;;10.82;;
35602;SDS011;21725;50.836;4.368;2022-12-05T13:53:00;16.42;;;12.35;;
35602;SDS011;21725;50.836;4.368;2022-12-05T13:55:30;20.33;;;11.63;;
35602;SDS011;21725;50.836;4.368;2022-12-05T14:00:51;16.23;;;11.35;;
35602;SDS011;21725;50.836;4.368;2022-12-05T14:14:57;18.13;;;11.68;;
35602;SDS011;21725;50.836;4.368;2022-12-05T14:17:30;17.92;;;11.93;;
35602;SDS011;21725;50.836;4.368;2022-12-05T14:34:05;14.73;;;10.88;;
35602;SDS011;21725;50.836;4.368;2022-12-05T14:42:01;16.35;;;10.02;;
35602;SDS011;21725;50.836;4.368;2022-12-05T14:44:29;13.45;;;9.63;;
35602;SDS011;21725;50.836;4.368;2022-12-05T14:46:58;18.48;;;12.02;;
35602;SDS011;21725;50.836;4.368;2022-12-05T14:49:32;16.63;;;11.65;;
35602;SDS011;21725;50.836;4.368;2022-12-05T14:52:17;19.70;;;12.50;;
35602;SDS011;21725;50.836;4.368;2022-12-05T14:54:53;18.15;;;12.50;;
35602;SDS011;21725;50.836;4.368;2022-12-05T14:57:26;18.52;;;13.00;;
35602;SDS011;21725;50.836;4.368;2022-12-05T15:00:03;18.65;;;10.98;;
35602;SDS011;21725;50.836;4.368;2022-12-05T15:02:42;18.88;;;12.90;;
35602;SDS011;21725;50.836;4.368;2022-12-05T15:05:28;21.88;;;14.93;;
35602;SDS011;21725;50.836;4.368;2022-12-05T15:07:56;20.83;;;14.25;;
35602;SDS011;21725;50.836;4.368;2022-12-05T15:10:39;20.02;;;14.77;;
35602;SDS011;21725;50.836;4.368;2022-12-05T15:13:12;23.35;;;15.45;;
35602;SDS011;21725;50.836;4.368;2022-12-05T15:15:59;29.13;;;17.05;;
35602;SDS011;21725;50.836;4.368;2022-12-05T15:18:43;29.63;;;18.17;;
35602;SDS011;21725;50.836;4.368;2022-12-05T15:21:31;25.23;;;16.15;;
35602;SDS011;21725;50.836;4.368;2022-12-05T15:24:16;25.17;;;16.30;;
35602;SDS011;21725;50.836;4.368;2022-12-05T15:26:48;27.50;;;17.33;;
35602;SDS011;21725;50.836;4.368;2022-12-05T15:31:51;31.50;;;20.45;;
35602;SDS011;21725;50.836;4.368;2022-12-05T15:34:21;30.15;;;19.08;;
35602;SDS011;21725;50.836;4.368;2022-12-05T15:37:16;37.92;;;20.70;;
35602;SDS011;21725;50.836;4.368;2022-12-05T15:42:40;29.48;;;19.42;;
35602;SDS011;21725;50.836;4.368;2022-12-05T15:47:38;35.38;;;23.40;;
35602;SDS011;21725;50.836;4.368;2022-12-05T15:50:05;42.38;;;24.23;;
35602;SDS011;21725;50.836;4.368;2022-12-05T15:53:01;38.08;;;25.42;;
35602;SDS011;21725;50.836;4.368;2022-12-05T15:55:47;38.95;;;23.35;;
35602;SDS011;21725;50.836;4.368;2022-12-05T15:58:26;33.55;;;22.70;;
35602;SDS011;21725;50.836;4.368;2022-12-05T16:00:57;32.33;;;21.10;;
35602;SDS011;21725;50.836;4.368;2022-12-05T16:03:44;32.08;;;20.85;;
35602;SDS011;21725;50.836;4.368;2022-12-05T16:06:43;43.08;;;27.77;;
35602;SDS011;21725;50.836;4.368;2022-12-05T16:09:19;40.10;;;24.52;;
35602;SDS011;21725;50.836;4.368;2022-12-05T16:14:33;42.65;;;25.77;;
35602;SDS011;21725;50.836;4.368;2022-12-05T16:17:05;41.30;;;25.42;;
35602;SDS011;21725;50.836;4.368;2022-12-05T16:19:40;40.97;;;25.38;;
35602;SDS011;21725;50.836;4.368;2022-12-05T16:22:08;43.63;;;28.52;;
35602;SDS011;21725;50.836;4.368;2022-12-05T16:27:24;34.03;;;20.70;;
35602;SDS011;21725;50.836;4.368;2022-12-05T16:32:39;33.10;;;21.30;;
35602;SDS011;21725;50.836;4.368;2022-12-05T16:38:33;41.90;;;27.73;;
35602;SDS011;21725;50.836;4.368;2022-12-05T16:41:04;43.47;;;26.52;;
35602;SDS011;21725;50.836;4.368;2022-12-05T16:48:40;45.47;;;28.63;;
35602;SDS011;21725;50.836;4.368;2022-12-05T16:51:18;48.15;;;30.38;;
35602;SDS011;21725;50.836;4.368;2022-12-05T16:53:53;52.83;;;34.58;;
35602;SDS011;21725;50.836;4.368;2022-12-05T16:58:50;46.72;;;32.08;;
35602;SDS011;21725;50.836;4.368;2022-12-05T17:24:15;40.58;;;24.30;;
35602;SDS011;21725;50.836;4.368;2022-12-05T17:26:42;43.95;;;28.08;;
35602;SDS011;21725;50.836;4.368;2022-12-05T17:29:09;47.95;;;29.42;;
35602;SDS011;21725;50.836;4.368;2022-12-05T17:31:35;44.55;;;27.75;;
35602;SDS011;21725;50.836;4.368;2022-12-05T17:34:01;43.38;;;26.98;;
35602;SDS011;21725;50.836;4.368;2022-12-05T17:36:29;43.50;;;28.42;;
35602;SDS011;21725;50.836;4.368;2022-12-05T17:39:04;46.88;;;29.40;;
35602;SDS011;21725;50.836;4.368;2022-12-05T17:41:30;44.70;;;28.38;;
35602;SDS011;21725;50.836;4.368;2022-12-05T17:43:56;49.10;;;30.85;;
35602;SDS011;21725;50.836;4.368;2022-12-05T17:46:22;52.03;;;34.03;;
35602;SDS011;21725;50.836;4.368;2022-12-05T17:48:49;61.10;;;38.03;;
35602;SDS011;21725;50.836;4.368;2022-12-05T17:51:16;61.78;;;35.13;;
35602;SDS011;21725;50.836;4.368;2022-12-05T17:53:45;45.88;;;29.00;;
35602;SDS011;21725;50.836;4.368;2022-12-05T17:56:12;48.30;;;30.65;;
35602;SDS011;21725;50.836;4.368;2022-12-05T17:58:38;47.92;;;29.73;;
35602;SDS011;21725;50.836;4.368;2022-12-05T18:01:04;46.38;;;29.83;;
35602;SDS011;21725;50.836;4.368;2022-12-05T18:03:30;49.67;;;33.03;;
35602;SDS011;21725;50.836;4.368;2022-12-05T18:05:58;88.07;;;50.80;;
35602;SDS011;21725;50.836;4.368;2022-12-05T18:08:25;52.63;;;34.50;;
35602;SDS011;21725;50.836;4.368;2022-12-05T18:10:55;48.35;;;34.42;;
35602;SDS011;21725;50.836;4.368;2022-12-05T18:13:26;47.35;;;32.60;;
35602;SDS011;21725;50.836;4.368;2022-12-05T18:15:56;49.28;;;34.33;;
35602;SDS011;21725;50.836;4.368;2022-12-05T18:18:25;54.08;;;39.90;;
35602;SDS011;21725;50.836;4.368;2022-12-05T18:20:53;46.67;;;34.92;;
35602;SDS011;21725;50.836;4.368;2022-12-05T18:23:33;32.10;;;23.83;;
35602;SDS011;21725;50.836;4.368;2022-12-05T18:26:01;38.35;;;26.77;;
35602;SDS011;21725;50.836;4.368;2022-12-05T18:28:29;43.47;;;26.80;;
35602;SDS011;21725;50.836;4.368;2022-12-05T18:31:11;40.42;;;26.05;;
35602;SDS011;21725;50.836;4.368;2022-12-05T18:33:39;44.70;;;28.48;;
35602;SDS011;21725;50.836;4.368;2022-12-05T18:36:06;44.92;;;28.13;;
35602;SDS011;21725;50.836;4.368;2022-12-05T18:38:39;40.90;;;26.17;;
35602;SDS011;21725;50.836;4.368;2022-12-05T18:41:06;37.72;;;25.95;;
35602;SDS011;21725;50.836;4.368;2022-12-05T18:43:32;39.33;;;23.85;;
35602;SDS011;21725;50.836;4.368;2022-12-05T18:46:02;43.65;;;24.75;;
35602;SDS011;21725;50.836;4.368;2022-12-05T18:48:36;39.42;;;26.33;;
35602;SDS011;21725;50.836;4.368;2022-12-05T18:51:05;38.28;;;26.75;;
35602;SDS011;21725;50.836;4.368;2022-12-05T18:53:38;42.10;;;26.33;;
35602;SDS011;21725;50.836;4.368;2022-12-05T18:56:07;41.95;;;26.13;;
35602;SDS011;21725;50.836;4.368;2022-12-05T18:58:35;44.97;;;28.33;;
35602;SDS011;21725;50.836;4.368;2022-12-05T19:01:05;42.17;;;27.58;;
35602;SDS011;21725;50.836;4.368;2022-12-05T19:03:35;47.65;;;27.48;;
35602;SDS011;21725;50.836;4.368;2022-12-05T19:06:12;45.53;;;28.50;;
35602;SDS011;21725;50.836;4.368;2022-12-05T19:08:40;45.13;;;28.17;;
35602;SDS011;21725;50.836;4.368;2022-12-05T19:11:08;45.10;;;27.45;;
35602;SDS011;21725;50.836;4.368;2022-12-05T19:13:36;44.28;;;26.88;;
35602;SDS011;21725;50.836;4.368;2022-12-05T19:16:03;46.50;;;27.50;;
35602;SDS011;21725;50.836;4.368;2022-12-05T19:18:30;47.50;;;29.10;;
35602;SDS011;21725;50.836;4.368;2022-12-05T19:21:03;41.03;;;26.13;;